Time;durP1;ratioP1;P1;durP2;ratioP2;P2;SDS_P1;SDS_P2;PMS_P1;PMS_P2;Temp;Humidity;BMP_temperature;BMP_pressure;BME280_temperature;BME280_humidity;BME280_pressure;Samples;Min_cycle;Max_cycle;Signal;HPM_P1;HPM_P2
2021/09/01 00:00:09;;;;;;;13.13;8.18;;;17.80;99.90;;;;;;5071621;28;20074;-84
2021/09/01 00:02:35;;;;;;;10.98;8.05;;;17.80;99.90;;;;;;5069841;28;20025;-84
2021/09/01 00:05:02;;;;;;;16.15;8.77;;;17.70;99.90;;;;;;5069638;28;20374;-84
2021/09/01 00:07:28;;;;;;;11.40;8.80;;;17.70;99.90;;;;;;5078764;28;20089;-84
2021/09/01 00:09:53;;;;;;;14.18;7.35;;;17.70;99.90;;;;;;5076773;28;20021;-84
2021/09/01 00:12:20;;;;;;;11.68;8.50;;;17.70;99.90;;;;;;5069638;28;20104;-84
2021/09/01 00:14:46;;;;;;;14.15;8.65;;;17.60;99.90;;;;;;5069531;28;20508;-84
2021/09/01 00:17:11;;;;;;;12.60;8.25;;;17.60;99.90;;;;;;5069147;28;20057;-84
2021/09/01 00:19:38;;;;;;;15.80;8.18;;;17.60;99.90;;;;;;5069063;28;20476;-84
2021/09/01 00:22:03;;;;;;;9.63;7.82;;;17.60;99.90;;;;;;5067951;28;20048;-84
2021/09/01 00:24:29;;;;;;;14.38;8.48;;;17.50;99.90;;;;;;5067888;28;20052;-84
2021/09/01 00:26:55;;;;;;;11.10;8.45;;;17.50;99.90;;;;;;5067666;28;20025;-84
2021/09/01 00:29:20;;;;;;;10.77;8.40;;;17.50;99.90;;;;;;5069237;28;20024;-84
2021/09/01 00:31:46;;;;;;;12.68;8.70;;;17.50;99.90;;;;;;5068870;28;20031;-84
2021/09/01 00:34:12;;;;;;;16.00;8.07;;;17.40;99.90;;;;;;5069084;28;20025;-84
2021/09/01 00:36:38;;;;;;;11.48;8.82;;;17.40;99.90;;;;;;5069178;28;20020;-84
2021/09/01 00:39:03;;;;;;;12.18;8.52;;;17.30;99.90;;;;;;5068930;28;20040;-84
2021/09/01 00:41:30;;;;;;;9.65;8.30;;;17.30;99.90;;;;;;5067750;28;20388;-84
2021/09/01 00:44:20;;;;;;;15.75;8.27;;;17.30;99.90;;;;;;5067566;28;20082;-84
2021/09/01 00:46:47;;;;;;;10.35;8.30;;;17.30;99.90;;;;;;5057444;28;20082;-84
2021/09/01 00:49:14;;;;;;;9.20;8.25;;;17.20;99.90;;;;;;5068677;28;20388;-84
2021/09/01 00:51:45;;;;;;;11.57;8.23;;;17.20;99.90;;;;;;5068979;28;20020;-84
2021/09/01 00:54:15;;;;;;;11.48;8.48;;;17.20;99.90;;;;;;5068034;28;20489;-84
2021/09/01 00:56:44;;;;;;;12.45;9.15;;;17.20;99.90;;;;;;5071277;28;20035;-84
2021/09/01 00:59:14;;;;;;;9.77;8.65;;;17.20;99.90;;;;;;5072409;28;20312;-84
2021/09/01 01:01:41;;;;;;;12.20;8.70;;;17.10;99.90;;;;;;5072576;28;20658;-84
2021/09/01 01:04:06;;;;;;;12.85;9.10;;;17.10;99.90;;;;;;5072122;28;20126;-84
2021/09/01 01:06:33;;;;;;;11.75;8.93;;;17.10;99.90;;;;;;5071182;28;20115;-84
2021/09/01 01:08:59;;;;;;;12.30;8.77;;;17.10;99.90;;;;;;5072121;28;20029;-84
2021/09/01 01:11:25;;;;;;;16.38;8.85;;;17.10;99.90;;;;;;5071159;28;20074;-84
2021/09/01 01:13:52;;;;;;;14.73;9.63;;;17.10;99.90;;;;;;5070804;28;20021;-84
2021/09/01 01:16:19;;;;;;;10.68;8.73;;;17.20;99.90;;;;;;5072035;28;20033;-84
2021/09/01 01:18:49;;;;;;;11.00;8.70;;;17.10;99.90;;;;;;5071819;28;20120;-84
2021/09/01 01:21:20;;;;;;;16.83;9.32;;;17.20;99.90;;;;;;5070660;28;20475;-84
2021/09/01 01:23:56;;;;;;;10.85;8.65;;;17.10;99.90;;;;;;5070727;28;20035;-84
2021/09/01 01:26:22;;;;;;;13.65;8.23;;;17.10;99.90;;;;;;5072322;28;20031;-84
2021/09/01 01:29:06;;;;;;;9.75;8.20;;;17.10;99.90;;;;;;5072047;28;20016;-84
2021/09/01 01:31:31;;;;;;;11.60;8.90;;;17.10;99.90;;;;;;5071796;28;20028;-84
2021/09/01 01:33:58;;;;;;;9.13;8.05;;;17.10;99.90;;;;;;5072206;28;20020;-84
2021/09/01 01:36:26;;;;;;;13.18;8.60;;;17.20;99.90;;;;;;5072275;28;20024;-84
2021/09/01 01:38:52;;;;;;;10.10;8.07;;;17.20;99.90;;;;;;5072165;28;20024;-84
2021/09/01 01:41:18;;;;;;;9.95;8.52;;;17.10;99.90;;;;;;5075716;28;20024;-84
2021/09/01 01:43:48;;;;;;;9.57;8.07;;;17.00;99.90;;;;;;5092034;28;20020;-84
2021/09/01 01:46:14;;;;;;;9.48;7.93;;;17.10;99.90;;;;;;5086962;28;20024;-84
2021/09/01 01:48:40;;;;;;;11.50;7.40;;;17.10;99.90;;;;;;5087834;28;20050;-84
2021/09/01 01:51:06;;;;;;;9.95;8.07;;;17.10;99.90;;;;;;5088244;28;20485;-84
2021/09/01 01:53:32;;;;;;;9.02;7.90;;;17.20;99.90;;;;;;5083187;28;20032;-84
2021/09/01 01:55:58;;;;;;;11.10;8.18;;;17.20;99.90;;;;;;5071396;28;20067;-84
2021/09/01 01:58:23;;;;;;;12.23;8.10;;;17.20;99.90;;;;;;5077533;28;20017;-84
2021/09/01 02:00:50;;;;;;;9.52;7.60;;;17.20;99.90;;;;;;5091422;28;20040;-84
2021/09/01 02:03:16;;;;;;;9.18;7.68;;;17.10;99.90;;;;;;5071339;28;20119;-84
2021/09/01 02:05:42;;;;;;;11.05;7.85;;;17.10;99.90;;;;;;5070995;28;20498;-84
2021/09/01 02:08:07;;;;;;;8.18;7.13;;;17.00;99.90;;;;;;5070947;28;20108;-84
2021/09/01 02:10:33;;;;;;;9.38;7.35;;;17.00;99.90;;;;;;5070037;28;20029;-84
2021/09/01 02:12:59;;;;;;;10.93;6.82;;;17.00;99.90;;;;;;5087030;28;20024;-84
2021/09/01 02:15:25;;;;;;;12.68;7.13;;;17.10;99.90;;;;;;5087598;28;20023;-84
2021/09/01 02:17:50;;;;;;;8.52;6.50;;;17.00;99.90;;;;;;5082163;28;20400;-83
2021/09/01 02:20:17;;;;;;;7.63;6.47;;;17.00;99.90;;;;;;5078998;28;20040;-84
2021/09/01 02:22:43;;;;;;;7.93;6.55;;;17.10;99.90;;;;;;5090621;28;20016;-84
2021/09/01 02:25:11;;;;;;;11.15;7.47;;;17.10;99.90;;;;;;5093568;28;20062;-84
2021/09/01 02:27:37;;;;;;;8.68;7.05;;;17.10;99.90;;;;;;5093407;28;20032;-84
2021/09/01 02:30:04;;;;;;;10.20;6.68;;;17.10;99.90;;;;;;5089352;28;20063;-84
2021/09/01 02:32:30;;;;;;;9.57;6.80;;;17.10;99.90;;;;;;5073835;28;20401;-84
2021/09/01 02:34:56;;;;;;;12.40;6.18;;;17.10;99.90;;;;;;5070483;28;20024;-84
2021/09/01 02:37:21;;;;;;;7.90;6.60;;;17.10;99.90;;;;;;5070558;28;20086;-84
2021/09/01 02:39:47;;;;;;;10.57;6.38;;;17.10;99.90;;;;;;5070324;28;20047;-84
2021/09/01 02:42:13;;;;;;;8.05;6.72;;;17.10;99.90;;;;;;5076134;28;20391;-83
2021/09/01 02:44:38;;;;;;;7.63;6.25;;;17.10;99.90;;;;;;5090773;28;20032;-84
2021/09/01 02:47:04;;;;;;;9.70;6.22;;;17.10;99.90;;;;;;5085503;28;20504;-84
2021/09/01 02:49:30;;;;;;;9.13;6.75;;;17.10;99.90;;;;;;5070290;28;20108;-84
2021/09/01 02:51:56;;;;;;;6.55;5.63;;;17.10;99.90;;;;;;5084425;28;20016;-84
2021/09/01 02:54:21;;;;;;;7.68;6.10;;;17.10;99.90;;;;;;5070311;28;20028;-84
2021/09/01 02:56:47;;;;;;;9.88;6.78;;;17.00;99.90;;;;;;5068603;28;20025;-84
2021/09/01 02:59:13;;;;;;;7.72;6.35;;;17.00;99.90;;;;;;5079267;28;20032;-84
2021/09/01 03:01:39;;;;;;;8.25;6.07;;;17.00;99.90;;;;;;5075481;28;20471;-84
2021/09/01 03:04:04;;;;;;;7.22;6.35;;;17.00;99.90;;;;;;5068807;28;20012;-84
2021/09/01 03:06:30;;;;;;;8.00;6.25;;;16.90;99.90;;;;;;5070212;28;20074;-84
2021/09/01 03:08:56;;;;;;;7.63;6.20;;;16.80;99.90;;;;;;5069953;28;20118;-84
2021/09/01 03:11:21;;;;;;;7.63;6.00;;;16.80;99.90;;;;;;5070430;28;20129;-84
2021/09/01 03:13:47;;;;;;;6.97;5.80;;;16.90;99.90;;;;;;5068706;28;20099;-84
2021/09/01 03:16:13;;;;;;;9.43;5.90;;;16.90;99.90;;;;;;5069656;28;20489;-84
2021/09/01 03:18:39;;;;;;;7.47;6.68;;;16.90;99.90;;;;;;5069034;28;20044;-84
2021/09/01 03:21:04;;;;;;;7.75;6.28;;;16.90;99.90;;;;;;5069871;28;20067;-84
2021/09/01 03:23:30;;;;;;;7.40;5.90;;;16.80;99.90;;;;;;5069770;28;20027;-84
2021/09/01 03:25:56;;;;;;;9.95;7.20;;;16.90;99.90;;;;;;5069734;28;20016;-84
2021/09/01 03:28:21;;;;;;;10.23;6.70;;;16.70;99.90;;;;;;5069866;28;20024;-84
2021/09/01 03:30:47;;;;;;;7.90;6.53;;;16.70;99.90;;;;;;5069605;28;20108;-84
2021/09/01 03:33:13;;;;;;;8.38;6.05;;;16.70;99.90;;;;;;5069691;28;20032;-84
2021/09/01 03:35:39;;;;;;;8.82;6.30;;;16.70;99.90;;;;;;5069645;28;20017;-84
2021/09/01 03:38:04;;;;;;;6.97;6.28;;;16.70;99.90;;;;;;5069736;28;20028;-84
2021/09/01 03:40:30;;;;;;;10.88;6.30;;;16.70;99.90;;;;;;5069581;28;20464;-84
2021/09/01 03:42:56;;;;;;;7.82;6.32;;;16.70;99.90;;;;;;5077162;28;20523;-84
2021/09/01 03:45:22;;;;;;;8.45;6.35;;;16.70;99.90;;;;;;5089979;28;20387;-84
2021/09/01 03:47:47;;;;;;;9.23;6.20;;;16.70;99.90;;;;;;5085081;28;20074;-84
2021/09/01 03:50:14;;;;;;;6.75;6.15;;;16.60;99.90;;;;;;5069703;28;20028;-84
2021/09/01 03:52:40;;;;;;;8.35;6.38;;;16.60;99.90;;;;;;5083821;28;20016;-84
2021/09/01 03:55:09;;;;;;;8.13;6.13;;;16.70;99.90;;;;;;5069537;28;20071;-84
2021/09/01 03:57:38;;;;;;;7.75;5.75;;;16.70;99.90;;;;;;5069966;28;20103;-84
2021/09/01 04:00:08;;;;;;;9.07;6.40;;;16.60;99.90;;;;;;5079599;28;20032;-84
2021/09/01 04:02:34;;;;;;;8.18;6.13;;;16.60;99.90;;;;;;5073986;28;20064;-84
2021/09/01 04:05:00;;;;;;;6.40;5.53;;;16.60;99.90;;;;;;5088861;28;20066;-85
2021/09/01 04:07:25;;;;;;;7.68;6.70;;;16.60;99.90;;;;;;5088746;28;20467;-85
2021/09/01 04:09:51;;;;;;;8.13;6.15;;;16.50;99.90;;;;;;5085145;28;20362;-85
2021/09/01 04:12:17;;;;;;;9.68;6.35;;;16.50;99.90;;;;;;5075213;28;20170;-85
2021/09/01 04:14:42;;;;;;;7.68;6.40;;;16.40;99.90;;;;;;5087546;28;20422;-85
2021/09/01 04:17:08;;;;;;;7.80;6.55;;;16.40;99.90;;;;;;5086898;28;20396;-85
2021/09/01 04:19:35;;;;;;;7.40;6.05;;;16.40;99.90;;;;;;5084093;28;20035;-85
2021/09/01 04:22:02;;;;;;;8.68;6.10;;;16.30;99.90;;;;;;5084496;28;20099;-85
2021/09/01 04:24:28;;;;;;;9.57;6.15;;;16.40;99.90;;;;;;5079959;28;20507;-85
2021/09/01 04:26:53;;;;;;;7.28;6.22;;;16.30;99.90;;;;;;5082991;28;20020;-85
2021/09/01 04:29:19;;;;;;;8.30;5.75;;;16.40;99.90;;;;;;5085942;28;20488;-85
2021/09/01 04:31:45;;;;;;;7.63;6.40;;;16.30;99.90;;;;;;5087485;28;20480;-85
2021/09/01 04:34:10;;;;;;;8.70;6.38;;;16.20;99.90;;;;;;5087668;28;20020;-85
2021/09/01 04:36:36;;;;;;;8.50;6.20;;;16.20;99.90;;;;;;5086081;28;20553;-85
2021/09/01 04:39:02;;;;;;;9.75;6.47;;;16.20;99.90;;;;;;5087102;28;20016;-85
2021/09/01 04:41:28;;;;;;;9.10;6.57;;;16.20;99.90;;;;;;5082218;28;20516;-85
2021/09/01 04:43:54;;;;;;;7.55;6.38;;;16.20;99.90;;;;;;5088306;28;20024;-85
2021/09/01 04:46:19;;;;;;;8.00;6.10;;;16.20;99.90;;;;;;5090678;28;20400;-85
2021/09/01 04:48:45;;;;;;;8.70;6.10;;;16.20;99.90;;;;;;5087314;28;20021;-85
2021/09/01 04:51:11;;;;;;;6.47;5.75;;;16.20;99.90;;;;;;5085654;28;20032;-86
2021/09/01 04:53:37;;;;;;;7.10;6.40;;;16.20;99.90;;;;;;5087598;28;20020;-85
2021/09/01 04:56:02;;;;;;;7.65;6.32;;;16.10;99.90;;;;;;5088322;28;20377;-85
2021/09/01 04:58:28;;;;;;;9.25;6.70;;;16.10;99.90;;;;;;5071328;28;20045;-85
2021/09/01 05:00:54;;;;;;;9.27;6.03;;;16.00;99.90;;;;;;5085301;28;20040;-85
2021/09/01 05:03:19;;;;;;;9.43;6.78;;;16.00;99.90;;;;;;5072172;28;20090;-85
2021/09/01 05:05:45;;;;;;;7.30;6.45;;;16.00;99.90;;;;;;5074804;28;20029;-85
2021/09/01 05:08:11;;;;;;;9.60;7.18;;;16.10;99.90;;;;;;5083937;28;20009;-85
2021/09/01 05:10:36;;;;;;;7.32;6.28;;;16.10;99.90;;;;;;5083280;28;20036;-85
2021/09/01 05:13:02;;;;;;;8.27;6.75;;;16.10;99.90;;;;;;5095076;28;20024;-85
2021/09/01 05:15:28;;;;;;;11.48;6.18;;;16.10;99.90;;;;;;5084131;28;20021;-85
2021/09/01 05:17:54;;;;;;;9.68;7.00;;;16.10;99.90;;;;;;5082349;28;20228;-86
2021/09/01 05:20:19;;;;;;;10.90;6.72;;;16.20;99.90;;;;;;5082066;28;20024;-85
2021/09/01 05:22:47;;;;;;;9.13;6.68;;;16.10;99.90;;;;;;5082576;28;20017;-85
2021/09/01 05:25:18;;;;;;;8.05;6.40;;;16.20;99.90;;;;;;5082962;28;20324;-85
2021/09/01 05:27:49;;;;;;;9.02;6.90;;;16.20;99.90;;;;;;5076932;28;20029;-84
2021/09/01 05:30:17;;;;;;;8.43;6.72;;;16.10;99.90;;;;;;5073533;28;20675;-85
2021/09/01 05:32:46;;;;;;;8.55;7.03;;;16.10;99.90;;;;;;5077404;28;20027;-84
2021/09/01 05:35:13;;;;;;;8.02;6.57;;;16.10;99.90;;;;;;5074200;28;20436;-84
2021/09/01 05:37:39;;;;;;;7.75;6.75;;;16.10;99.90;;;;;;5075653;28;20031;-85
2021/09/01 05:40:08;;;;;;;7.72;6.47;;;16.10;99.90;;;;;;5075648;28;20081;-85
2021/09/01 05:42:34;;;;;;;8.80;6.95;;;16.10;99.90;;;;;;5074750;28;20021;-84
2021/09/01 05:45:01;;;;;;;11.15;6.72;;;16.00;99.90;;;;;;5073285;28;20066;-84
2021/09/01 05:47:27;;;;;;;9.80;7.20;;;16.00;99.90;;;;;;5076787;28;20030;-84
2021/09/01 05:49:55;;;;;;;8.85;7.10;;;16.00;99.90;;;;;;5080599;28;20095;-85
2021/09/01 05:52:22;;;;;;;8.95;6.95;;;16.00;99.90;;;;;;5098849;28;20025;-85
2021/09/01 05:54:50;;;;;;;10.65;6.80;;;16.10;99.90;;;;;;5094126;28;20016;-85
2021/09/01 05:57:17;;;;;;;14.85;7.80;;;16.00;99.90;;;;;;5102850;28;20327;-85
2021/09/01 06:00:00;;;;;;;10.00;6.68;;;16.00;99.90;;;;;;5101491;28;20299;-85
2021/09/01 06:02:29;;;;;;;8.70;6.45;;;16.00;99.90;;;;;;5087983;28;20027;-85
2021/09/01 06:04:58;;;;;;;11.48;7.80;;;16.10;99.90;;;;;;5101456;28;20020;-84
2021/09/01 06:07:27;;;;;;;8.95;7.43;;;16.10;99.90;;;;;;5094312;28;20016;-85
2021/09/01 06:09:58;;;;;;;10.25;7.13;;;16.10;99.90;;;;;;5096350;28;20138;-85
2021/09/01 06:12:27;;;;;;;10.68;7.35;;;16.10;99.90;;;;;;5093425;28;20032;-85
2021/09/01 06:14:53;;;;;;;9.93;7.68;;;16.10;99.90;;;;;;5084115;28;20016;-85
2021/09/01 06:17:19;;;;;;;9.82;7.50;;;16.20;99.90;;;;;;5074018;28;20068;-85
2021/09/01 06:19:45;;;;;;;9.68;7.63;;;16.20;99.90;;;;;;5079984;28;20044;-85
2021/09/01 06:22:13;;;;;;;10.00;7.43;;;16.30;99.90;;;;;;5094514;28;20019;-85
2021/09/01 06:24:39;;;;;;;10.02;7.63;;;16.30;99.90;;;;;;5079741;28;20047;-85
2021/09/01 06:27:05;;;;;;;8.95;7.65;;;16.30;99.90;;;;;;5093476;28;20424;-85
2021/09/01 06:29:31;;;;;;;8.05;6.97;;;16.30;99.90;;;;;;5093468;28;20031;-84
2021/09/01 06:31:57;;;;;;;11.05;8.00;;;16.30;99.90;;;;;;5082425;28;20032;-85
2021/09/01 06:34:23;;;;;;;10.43;7.50;;;16.30;99.90;;;;;;5090536;28;20549;-85
2021/09/01 06:36:48;;;;;;;10.65;7.68;;;16.30;99.90;;;;;;5093071;28;20032;-85
2021/09/01 06:39:14;;;;;;;9.10;7.75;;;16.40;99.90;;;;;;5092112;28;20052;-84
2021/09/01 06:41:40;;;;;;;10.45;8.15;;;16.50;99.90;;;;;;5094843;28;20029;-85
2021/09/01 06:44:06;;;;;;;8.27;7.35;;;16.60;99.90;;;;;;5091625;28;20024;-84
2021/09/01 06:46:32;;;;;;;8.90;7.75;;;16.60;99.90;;;;;;5074253;28;20548;-85
2021/09/01 06:48:58;;;;;;;10.20;7.90;;;16.60;99.90;;;;;;5078720;28;20020;-85
2021/09/01 06:51:24;;;;;;;10.35;7.05;;;16.60;99.90;;;;;;5087216;28;20145;-85
2021/09/01 06:53:50;;;;;;;10.63;7.72;;;16.70;99.90;;;;;;5082768;28;20048;-85
2021/09/01 06:56:16;;;;;;;11.68;7.68;;;16.80;99.90;;;;;;5089895;28;20024;-85
2021/09/01 06:58:41;;;;;;;13.10;7.70;;;16.80;99.90;;;;;;5094413;28;20031;-85
2021/09/01 07:01:07;;;;;;;10.65;7.60;;;16.90;99.90;;;;;;5091277;28;20141;-85
2021/09/01 07:03:32;;;;;;;8.43;7.15;;;16.90;99.90;;;;;;5081850;28;20016;-85
2021/09/01 07:05:58;;;;;;;11.38;7.75;;;16.90;99.90;;;;;;5095496;28;20047;-85
2021/09/01 07:08:24;;;;;;;13.98;7.47;;;17.00;99.90;;;;;;5092417;28;20047;-85
2021/09/01 07:10:51;;;;;;;9.60;7.60;;;17.00;99.90;;;;;;5095702;28;20043;-85
2021/09/01 07:13:17;;;;;;;9.65;6.93;;;17.10;99.90;;;;;;5094198;28;20520;-85
2021/09/01 07:15:44;;;;;;;8.27;6.60;;;17.20;99.90;;;;;;5082647;28;20028;-85
2021/09/01 07:18:11;;;;;;;7.93;6.90;;;17.20;99.90;;;;;;5073978;28;20348;-85
2021/09/01 07:20:39;;;;;;;9.27;7.50;;;17.30;99.90;;;;;;5073774;28;20067;-85
2021/09/01 07:23:05;;;;;;;7.80;6.88;;;17.30;99.90;;;;;;5074055;28;20028;-84
2021/09/01 07:25:32;;;;;;;9.32;7.15;;;17.50;99.90;;;;;;5071728;28;20024;-85
2021/09/01 07:27:59;;;;;;;11.77;6.68;;;17.60;99.90;;;;;;5074788;28;20039;-85
2021/09/01 07:30:25;;;;;;;9.15;7.30;;;17.60;99.90;;;;;;5074295;28;20028;-86
2021/09/01 07:32:50;;;;;;;7.63;6.65;;;17.60;99.90;;;;;;5073996;28;20025;-85
2021/09/01 07:35:16;;;;;;;9.23;6.72;;;17.60;99.90;;;;;;5074812;28;20091;-85
2021/09/01 07:37:47;;;;;;;10.60;6.65;;;17.80;99.90;;;;;;5072500;28;20017;-85
2021/09/01 07:40:15;;;;;;;8.85;6.60;;;17.80;99.90;;;;;;5074692;28;20032;-85
2021/09/01 07:42:43;;;;;;;10.25;7.35;;;17.90;99.90;;;;;;5073292;28;20563;-85
2021/09/01 07:45:09;;;;;;;11.30;6.78;;;18.00;99.90;;;;;;5071594;28;20071;-85
2021/09/01 07:47:35;;;;;;;9.73;6.90;;;18.00;99.90;;;;;;5072674;28;20029;-85
2021/09/01 07:50:00;;;;;;;9.95;6.68;;;18.20;99.90;;;;;;5073185;28;20020;-86
2021/09/01 07:52:26;;;;;;;9.77;6.57;;;18.20;99.90;;;;;;5072632;28;20028;-85
2021/09/01 07:54:52;;;;;;;7.65;6.78;;;18.30;99.90;;;;;;5071751;28;20027;-85
2021/09/01 07:57:17;;;;;;;9.15;6.50;;;18.30;99.90;;;;;;5074534;28;20026;-85
2021/09/01 07:59:43;;;;;;;9.25;6.30;;;18.40;99.90;;;;;;5073169;28;20029;-85
2021/09/01 08:02:08;;;;;;;8.57;6.18;;;18.40;99.90;;;;;;5072222;28;20407;-85
2021/09/01 08:04:34;;;;;;;10.43;6.20;;;18.50;99.90;;;;;;5076447;28;20047;-85
2021/09/01 08:07:00;;;;;;;8.75;5.88;;;18.50;99.90;;;;;;5077805;28;20016;-85
2021/09/01 08:09:25;;;;;;;10.48;6.88;;;18.70;99.90;;;;;;5077468;28;20098;-86
2021/09/01 08:11:51;;;;;;;8.32;6.47;;;18.70;99.90;;;;;;5075929;28;20024;-85
2021/09/01 08:14:17;;;;;;;7.53;6.38;;;18.80;99.90;;;;;;5077006;28;20672;-86
2021/09/01 08:16:43;;;;;;;9.30;5.70;;;18.90;99.90;;;;;;5077649;28;20025;-85
2021/09/01 08:19:08;;;;;;;7.75;6.80;;;18.90;99.90;;;;;;5076107;28;20047;-85
2021/09/01 08:21:34;;;;;;;7.75;6.15;;;19.00;99.90;;;;;;5078519;28;20028;-85
2021/09/01 08:24:00;;;;;;;8.02;6.53;;;19.10;99.90;;;;;;5076994;28;20024;-86
2021/09/01 08:26:25;;;;;;;10.57;6.03;;;19.10;99.90;;;;;;5077586;28;20036;-86
2021/09/01 08:28:51;;;;;;;7.05;6.07;;;19.20;99.90;;;;;;5077884;28;20047;-86
2021/09/01 08:31:17;;;;;;;8.43;6.10;;;19.20;99.90;;;;;;5075799;28;20020;-85
2021/09/01 08:33:43;;;;;;;11.32;5.90;;;19.30;99.90;;;;;;5076500;28;20153;-86
2021/09/01 08:36:09;;;;;;;8.15;6.28;;;19.40;99.90;;;;;;5078241;28;20050;-85
2021/09/01 08:38:35;;;;;;;7.80;5.93;;;19.50;99.90;;;;;;5076620;28;20388;-86
2021/09/01 08:41:01;;;;;;;8.68;6.03;;;19.50;99.90;;;;;;5075135;28;20047;-86
2021/09/01 08:43:27;;;;;;;8.48;5.95;;;19.60;99.90;;;;;;5074505;28;20361;-85
2021/09/01 08:45:53;;;;;;;8.48;6.13;;;19.70;99.90;;;;;;5076701;28;20107;-86
2021/09/01 08:48:21;;;;;;;9.05;5.85;;;19.70;99.90;;;;;;5075276;28;20032;-85
2021/09/01 08:50:47;;;;;;;8.52;6.28;;;19.80;99.90;;;;;;5075188;28;20064;-85
2021/09/01 08:53:13;;;;;;;9.63;5.60;;;20.00;99.90;;;;;;5077233;28;20015;-85
2021/09/01 08:55:39;;;;;;;8.60;5.78;;;20.00;99.90;;;;;;5076673;28;20035;-86
2021/09/01 08:58:05;;;;;;;6.90;5.10;;;20.20;99.90;;;;;;5077622;28;20324;-85
2021/09/01 09:00:30;;;;;;;7.63;5.45;;;20.30;99.90;;;;;;5074671;28;20036;-86
2021/09/01 09:02:58;;;;;;;7.97;5.35;;;20.30;99.90;;;;;;5076393;28;20020;-85
2021/09/01 09:05:37;;;;;;;8.98;5.22;;;20.40;99.90;;;;;;5075835;28;20016;-86
2021/09/01 09:08:14;;;;;;;6.57;5.15;;;20.50;99.90;;;;;;5076061;28;20017;-86
2021/09/01 09:10:47;;;;;;;5.80;4.95;;;20.70;99.90;;;;;;5075789;28;20028;-86
2021/09/01 09:13:15;;;;;;;5.20;4.70;;;20.80;99.90;;;;;;5074721;28;20372;-85
2021/09/01 09:15:42;;;;;;;8.82;5.20;;;20.80;99.90;;;;;;5073762;28;20107;-86
2021/09/01 09:18:28;;;;;;;7.60;4.70;;;20.90;99.90;;;;;;5076610;28;20431;-86
2021/09/01 09:21:15;;;;;;;11.15;5.10;;;21.00;99.90;;;;;;5082113;28;20052;-86
2021/09/01 09:23:42;;;;;;;9.77;4.80;;;21.20;99.50;;;;;;5079792;28;20029;-86
2021/09/01 09:26:27;;;;;;;7.75;4.70;;;21.30;99.40;;;;;;5082760;28;20343;-86
2021/09/01 09:29:14;;;;;;;7.88;4.97;;;21.30;98.90;;;;;;5081480;28;20101;-86
2021/09/01 09:31:42;;;;;;;7.20;4.68;;;21.50;98.80;;;;;;5083175;28;20380;-86
2021/09/01 09:34:11;;;;;;;8.15;4.53;;;21.50;98.60;;;;;;5093178;28;20253;-86
2021/09/01 09:36:37;;;;;;;6.03;4.45;;;21.70;98.60;;;;;;5090506;28;20561;-86
2021/09/01 09:39:05;;;;;;;11.15;5.05;;;21.80;98.10;;;;;;5075302;28;20234;-86
2021/09/01 09:41:31;;;;;;;11.77;4.72;;;21.80;97.40;;;;;;5076300;28;20032;-86
2021/09/01 09:44:00;;;;;;;6.45;4.47;;;22.00;97.00;;;;;;5075298;28;20027;-86
2021/09/01 09:46:27;;;;;;;9.13;4.88;;;22.10;96.70;;;;;;5081018;28;20487;-86
2021/09/01 09:49:02;;;;;;;5.47;4.28;;;22.10;96.10;;;;;;5102948;28;20024;-86
2021/09/01 09:51:40;;;;;;;10.30;4.30;;;22.10;95.40;;;;;;5097318;28;20023;-86
2021/09/01 09:54:20;;;;;;;4.63;3.90;;;22.20;95.00;;;;;;5085749;28;20064;-86
2021/09/01 09:56:47;;;;;;;9.80;4.20;;;22.30;95.00;;;;;;5091329;28;20023;-87
2021/09/01 09:59:21;;;;;;;8.65;4.45;;;22.40;94.70;;;;;;5100103;28;20012;-86
2021/09/01 10:01:48;;;;;;;6.13;4.05;;;22.40;94.20;;;;;;5097752;28;20334;-85
2021/09/01 10:04:14;;;;;;;7.10;4.30;;;22.50;94.00;;;;;;5078503;28;20028;-86
2021/09/01 10:06:43;;;;;;;6.93;4.18;;;22.60;93.70;;;;;;5073525;28;20370;-86
2021/09/01 10:09:10;;;;;;;5.65;3.58;;;22.70;93.70;;;;;;5075170;28;20028;-86
2021/09/01 10:11:39;;;;;;;7.78;3.72;;;22.80;93.30;;;;;;5074534;28;20024;-86
2021/09/01 10:14:07;;;;;;;12.65;4.38;;;23.00;92.70;;;;;;5073798;28;20501;-85
2021/09/01 10:16:35;;;;;;;4.78;3.78;;;23.00;92.80;;;;;;5088102;28;20032;-85
2021/09/01 10:19:00;;;;;;;6.93;3.83;;;23.00;92.90;;;;;;5084029;28;20027;-85
2021/09/01 10:21:29;;;;;;;5.63;4.05;;;23.20;92.00;;;;;;5073296;28;20029;-83
2021/09/01 10:23:55;;;;;;;7.00;4.05;;;23.20;92.50;;;;;;5074859;28;20445;-84
2021/09/01 10:26:25;;;;;;;7.32;4.18;;;23.30;92.10;;;;;;5076975;28;20024;-86
2021/09/01 10:28:52;;;;;;;7.30;4.35;;;23.50;91.90;;;;;;5071969;28;20020;-83
2021/09/01 10:31:23;;;;;;;6.40;4.60;;;23.50;91.50;;;;;;5091210;28;20038;-83
2021/09/01 10:33:52;;;;;;;8.25;5.68;;;23.60;91.40;;;;;;5093555;28;20205;-84
2021/09/01 10:36:23;;;;;;;8.23;4.90;;;23.70;91.30;;;;;;5096895;28;20032;-83
2021/09/01 10:38:51;;;;;;;6.90;3.88;;;23.70;91.50;;;;;;5098444;28;20333;-84
2021/09/01 10:41:30;;;;;;;6.72;3.83;;;23.70;90.90;;;;;;5081574;28;20035;-83
2021/09/01 10:44:12;;;;;;;9.43;4.25;;;23.90;90.40;;;;;;5081467;28;20017;-84
2021/09/01 10:46:53;;;;;;;9.55;3.65;;;23.90;90.00;;;;;;5110169;28;20017;-84
2021/09/01 10:49:21;;;;;;;7.32;3.80;;;24.00;90.40;;;;;;5095723;28;20016;-83
2021/09/01 10:51:51;;;;;;;6.40;3.88;;;24.00;90.40;;;;;;5102605;28;20241;-84
2021/09/01 10:54:29;;;;;;;9.25;4.03;;;24.20;89.20;;;;;;5100607;28;20216;-83
2021/09/01 10:56:56;;;;;;;12.98;3.45;;;24.10;87.80;;;;;;5076408;28;20031;-83
2021/09/01 10:59:30;;;;;;;9.55;3.70;;;24.00;88.90;;;;;;5068077;28;20417;-83
2021/09/01 11:02:09;;;;;;;6.07;3.60;;;24.00;89.00;;;;;;5069872;28;20089;-84
2021/09/01 11:04:36;;;;;;;4.97;3.13;;;24.10;88.50;;;;;;5070319;28;20038;-84
2021/09/01 11:07:07;;;;;;;7.70;3.28;;;24.10;88.40;;;;;;5068626;28;20028;-85
2021/09/01 11:09:32;;;;;;;5.28;3.78;;;24.00;89.20;;;;;;5070373;28;20163;-84
2021/09/01 11:11:59;;;;;;;5.75;3.47;;;24.10;89.60;;;;;;5069882;28;20189;-85
2021/09/01 11:14:43;;;;;;;6.38;2.83;;;24.30;87.60;;;;;;5070507;28;20317;-83
2021/09/01 11:17:14;;;;;;;8.43;3.28;;;24.30;86.80;;;;;;5069684;28;20040;-83
2021/09/01 11:19:42;;;;;;;4.88;3.35;;;24.30;86.80;;;;;;5070167;28;20194;-86
2021/09/01 11:22:10;;;;;;;4.80;3.60;;;24.50;86.30;;;;;;5069937;28;20035;-84
2021/09/01 11:24:50;;;;;;;5.55;3.60;;;24.60;85.20;;;;;;5069961;28;20108;-86
2021/09/01 11:27:22;;;;;;;5.15;3.30;;;24.80;84.70;;;;;;5067372;28;20020;-86
2021/09/01 11:29:48;;;;;;;5.85;3.55;;;24.90;83.70;;;;;;5065830;28;20078;-91
2021/09/01 11:32:19;;;;;;;7.03;3.47;;;25.00;83.40;;;;;;5082653;28;20027;-85
2021/09/01 11:34:46;;;;;;;6.75;3.67;;;25.20;84.10;;;;;;5074852;28;20020;-86
2021/09/01 11:37:14;;;;;;;6.57;3.20;;;25.40;83.80;;;;;;5077527;28;20031;-85
2021/09/01 11:39:45;;;;;;;8.25;3.65;;;25.60;82.60;;;;;;5059304;28;20384;-87
2021/09/01 11:42:12;;;;;;;4.80;3.40;;;25.70;81.70;;;;;;5068046;28;20549;-87
2021/09/01 11:44:39;;;;;;;3.50;3.17;;;25.60;81.60;;;;;;5069398;28;20089;-85
2021/09/01 11:47:15;;;;;;;6.75;3.65;;;25.70;80.70;;;;;;5069014;28;20025;-83
2021/09/01 11:49:40;;;;;;;7.25;2.92;;;25.90;79.60;;;;;;5068238;28;20051;-82
2021/09/01 11:52:06;;;;;;;10.90;3.53;;;26.00;77.50;;;;;;5069431;28;20025;-83
2021/09/01 11:54:32;;;;;;;7.68;3.53;;;25.80;77.80;;;;;;5069469;28;20020;-84
2021/09/01 11:56:58;;;;;;;6.15;3.80;;;25.80;78.70;;;;;;5069255;28;20519;-83
2021/09/01 11:59:26;;;;;;;6.10;3.40;;;26.00;77.80;;;;;;5074109;28;20060;-83
2021/09/01 12:01:55;;;;;;;6.32;3.20;;;26.10;77.90;;;;;;5074930;28;20267;-84
2021/09/01 12:04:22;;;;;;;5.75;3.50;;;26.20;77.40;;;;;;5082374;28;20065;-83
2021/09/01 12:06:57;;;;;;;4.68;3.25;;;26.10;76.00;;;;;;5077576;28;20102;-83
2021/09/01 12:09:25;;;;;;;8.57;3.60;;;26.20;76.30;;;;;;5075690;28;20048;-83
2021/09/01 12:12:00;;;;;;;4.25;2.97;;;26.40;75.90;;;;;;5090662;28;20055;-84
2021/09/01 12:14:31;;;;;;;7.05;3.35;;;26.40;75.60;;;;;;5085389;28;20051;-84
2021/09/01 12:17:20;;;;;;;5.30;3.20;;;26.50;74.10;;;;;;5081097;28;20119;-84
2021/09/01 12:19:51;;;;;;;9.73;3.10;;;26.30;73.50;;;;;;5063326;28;20150;-83
2021/09/01 12:22:42;;;;;;;7.45;2.97;;;26.50;73.00;;;;;;5089507;28;20016;-83
2021/09/01 12:25:08;;;;;;;6.80;3.47;;;26.50;72.00;;;;;;5076127;28;20037;-84
2021/09/01 12:27:39;;;;;;;6.00;3.10;;;26.50;72.70;;;;;;5066546;28;20040;-83
2021/09/01 12:30:09;;;;;;;6.43;2.83;;;26.70;71.70;;;;;;5074297;28;20655;-84
2021/09/01 12:32:35;;;;;;;6.25;3.00;;;26.90;71.60;;;;;;5086582;28;20031;-83
2021/09/01 12:35:04;;;;;;;7.47;3.20;;;27.10;70.90;;;;;;5068806;28;20404;-84
2021/09/01 12:37:33;;;;;;;6.22;3.03;;;27.10;71.30;;;;;;5068807;28;20078;-84
2021/09/01 12:40:01;;;;;;;3.95;2.80;;;27.20;70.60;;;;;;5070026;28;20037;-83
2021/09/01 12:42:31;;;;;;;4.80;3.13;;;27.20;68.80;;;;;;5067390;28;20017;-85
2021/09/01 12:45:07;;;;;;;5.78;3.10;;;27.20;67.40;;;;;;5067431;28;20396;-85